sensor_id;sensor_type;location;lat;lon;timestamp;temperature;humidity
64817;DHT22;69411;45.656;11.740;2024-03-02T00:00:07;11.50;81.60
64817;DHT22;69411;45.656;11.740;2024-03-02T00:02:45;11.50;81.70
64817;DHT22;69411;45.656;11.740;2024-03-02T00:05:22;11.50;81.70
64817;DHT22;69411;45.656;11.740;2024-03-02T00:08:02;11.50;81.60
64817;DHT22;69411;45.656;11.740;2024-03-02T00:10:38;11.50;81.60
64817;DHT22;69411;45.656;11.740;2024-03-02T00:13:07;11.50;81.70
64817;DHT22;69411;45.656;11.740;2024-03-02T00:15:47;11.50;81.50
64817;DHT22;69411;45.656;11.740;2024-03-02T00:20:46;11.50;81.50
64817;DHT22;69411;45.656;11.740;2024-03-02T00:23:16;11.50;81.60
64817;DHT22;69411;45.656;11.740;2024-03-02T00:25:53;11.40;81.60
64817;DHT22;69411;45.656;11.740;2024-03-02T00:28:27;11.40;81.70
64817;DHT22;69411;45.656;11.740;2024-03-02T00:33:48;11.40;81.90
64817;DHT22;69411;45.656;11.740;2024-03-02T00:36:16;11.40;81.90
64817;DHT22;69411;45.656;11.740;2024-03-02T00:38:49;11.40;81.80
64817;DHT22;69411;45.656;11.740;2024-03-02T00:41:22;11.40;81.90
64817;DHT22;69411;45.656;11.740;2024-03-02T00:44:04;11.40;81.80
64817;DHT22;69411;45.656;11.740;2024-03-02T00:49:05;11.40;81.70
64817;DHT22;69411;45.656;11.740;2024-03-02T00:51:33;11.40;81.60
64817;DHT22;69411;45.656;11.740;2024-03-02T00:54:01;11.40;81.80
64817;DHT22;69411;45.656;11.740;2024-03-02T00:56:30;11.40;81.60
64817;DHT22;69411;45.656;11.740;2024-03-02T00:58:56;11.40;81.70
64817;DHT22;69411;45.656;11.740;2024-03-02T01:01:23;11.40;81.70
64817;DHT22;69411;45.656;11.740;2024-03-02T01:03:49;11.40;81.70
64817;DHT22;69411;45.656;11.740;2024-03-02T01:06:16;11.40;81.70
64817;DHT22;69411;45.656;11.740;2024-03-02T01:08:43;11.40;81.60
64817;DHT22;69411;45.656;11.740;2024-03-02T01:11:09;11.40;81.70
64817;DHT22;69411;45.656;11.740;2024-03-02T01:13:35;11.40;81.70
64817;DHT22;69411;45.656;11.740;2024-03-02T01:16:01;11.40;81.60
64817;DHT22;69411;45.656;11.740;2024-03-02T01:18:28;11.40;81.60
64817;DHT22;69411;45.656;11.740;2024-03-02T01:20:54;11.40;81.60
64817;DHT22;69411;45.656;11.740;2024-03-02T01:23:23;11.40;81.60
64817;DHT22;69411;45.656;11.740;2024-03-02T01:25:50;11.40;81.60
64817;DHT22;69411;45.656;11.740;2024-03-02T01:28:18;11.40;81.60
64817;DHT22;69411;45.656;11.740;2024-03-02T01:30:46;11.40;81.50
64817;DHT22;69411;45.656;11.740;2024-03-02T01:33:12;11.40;81.40
64817;DHT22;69411;45.656;11.740;2024-03-02T01:35:37;11.40;81.30
64817;DHT22;69411;45.656;11.740;2024-03-02T01:38:04;11.40;81.30
64817;DHT22;69411;45.656;11.740;2024-03-02T01:40:37;11.40;81.30
64817;DHT22;69411;45.656;11.740;2024-03-02T01:43:04;11.40;81.10
64817;DHT22;69411;45.656;11.740;2024-03-02T01:45:30;11.50;81.10
64817;DHT22;69411;45.656;11.740;2024-03-02T01:47:56;11.50;80.90
64817;DHT22;69411;45.656;11.740;2024-03-02T01:50:30;11.50;81.00
64817;DHT22;69411;45.656;11.740;2024-03-02T01:52:56;11.50;81.00
64817;DHT22;69411;45.656;11.740;2024-03-02T01:55:23;11.40;81.00
64817;DHT22;69411;45.656;11.740;2024-03-02T01:57:49;11.40;81.00
64817;DHT22;69411;45.656;11.740;2024-03-02T02:00:17;11.40;80.90
64817;DHT22;69411;45.656;11.740;2024-03-02T02:02:43;11.40;81.00
64817;DHT22;69411;45.656;11.740;2024-03-02T02:05:09;11.40;80.90
64817;DHT22;69411;45.656;11.740;2024-03-02T02:07:36;11.40;81.00
64817;DHT22;69411;45.656;11.740;2024-03-02T02:10:02;11.40;80.90
64817;DHT22;69411;45.656;11.740;2024-03-02T02:12:28;11.40;80.80
64817;DHT22;69411;45.656;11.740;2024-03-02T02:14:54;11.40;80.80
64817;DHT22;69411;45.656;11.740;2024-03-02T02:17:20;11.40;80.70
64817;DHT22;69411;45.656;11.740;2024-03-02T02:19:46;11.40;80.80
64817;DHT22;69411;45.656;11.740;2024-03-02T02:22:12;11.40;80.70
64817;DHT22;69411;45.656;11.740;2024-03-02T02:24:41;11.40;80.70
64817;DHT22;69411;45.656;11.740;2024-03-02T02:27:08;11.40;80.60
64817;DHT22;69411;45.656;11.740;2024-03-02T02:29:34;11.40;80.50
64817;DHT22;69411;45.656;11.740;2024-03-02T02:32:00;11.40;80.40
64817;DHT22;69411;45.656;11.740;2024-03-02T02:34:26;11.40;80.10
64817;DHT22;69411;45.656;11.740;2024-03-02T02:36:52;11.40;80.10
64817;DHT22;69411;45.656;11.740;2024-03-02T02:39:20;11.40;79.90
64817;DHT22;69411;45.656;11.740;2024-03-02T02:41:47;11.40;79.90
64817;DHT22;69411;45.656;11.740;2024-03-02T02:44:13;11.50;80.10
64817;DHT22;69411;45.656;11.740;2024-03-02T02:46:39;11.50;80.00
64817;DHT22;69411;45.656;11.740;2024-03-02T02:49:05;11.50;80.00
64817;DHT22;69411;45.656;11.740;2024-03-02T02:51:31;11.40;79.80
64817;DHT22;69411;45.656;11.740;2024-03-02T02:53:57;11.40;79.70
64817;DHT22;69411;45.656;11.740;2024-03-02T02:56:23;11.40;79.60
64817;DHT22;69411;45.656;11.740;2024-03-02T02:58:49;11.40;79.60
64817;DHT22;69411;45.656;11.740;2024-03-02T03:01:16;11.50;79.50
64817;DHT22;69411;45.656;11.740;2024-03-02T03:03:45;11.40;79.40
64817;DHT22;69411;45.656;11.740;2024-03-02T03:06:11;11.50;79.40
64817;DHT22;69411;45.656;11.740;2024-03-02T03:08:38;11.50;79.30
64817;DHT22;69411;45.656;11.740;2024-03-02T03:11:06;11.50;79.20
64817;DHT22;69411;45.656;11.740;2024-03-02T03:13:33;11.50;79.20
64817;DHT22;69411;45.656;11.740;2024-03-02T03:15:59;11.50;78.90
64817;DHT22;69411;45.656;11.740;2024-03-02T03:18:25;11.50;79.10
64817;DHT22;69411;45.656;11.740;2024-03-02T03:20:51;11.50;79.00
64817;DHT22;69411;45.656;11.740;2024-03-02T03:23:17;11.50;79.00
64817;DHT22;69411;45.656;11.740;2024-03-02T03:25:43;11.50;79.00
64817;DHT22;69411;45.656;11.740;2024-03-02T03:28:09;11.40;78.90
64817;DHT22;69411;45.656;11.740;2024-03-02T03:30:39;11.40;78.90
64817;DHT22;69411;45.656;11.740;2024-03-02T03:33:06;11.40;79.00
64817;DHT22;69411;45.656;11.740;2024-03-02T03:35:32;11.50;78.90
64817;DHT22;69411;45.656;11.740;2024-03-02T03:37:58;11.40;78.70
64817;DHT22;69411;45.656;11.740;2024-03-02T03:40:24;11.40;78.90
64817;DHT22;69411;45.656;11.740;2024-03-02T03:42:50;11.40;78.80
64817;DHT22;69411;45.656;11.740;2024-03-02T03:45:16;11.50;78.80
64817;DHT22;69411;45.656;11.740;2024-03-02T03:47:42;11.40;78.70
64817;DHT22;69411;45.656;11.740;2024-03-02T03:50:09;11.40;78.80
64817;DHT22;69411;45.656;11.740;2024-03-02T03:52:35;11.40;78.70
64817;DHT22;69411;45.656;11.740;2024-03-02T03:55:01;11.40;78.70
64817;DHT22;69411;45.656;11.740;2024-03-02T03:57:27;11.40;78.90
64817;DHT22;69411;45.656;11.740;2024-03-02T03:59:53;11.40;78.90
64817;DHT22;69411;45.656;11.740;2024-03-02T04:02:19;11.40;79.00
64817;DHT22;69411;45.656;11.740;2024-03-02T04:04:45;11.40;79.00
64817;DHT22;69411;45.656;11.740;2024-03-02T04:07:11;11.30;79.10
64817;DHT22;69411;45.656;11.740;2024-03-02T04:09:37;11.40;79.20
64817;DHT22;69411;45.656;11.740;2024-03-02T04:12:03;11.40;79.10
64817;DHT22;69411;45.656;11.740;2024-03-02T04:14:29;11.40;79.20
64817;DHT22;69411;45.656;11.740;2024-03-02T04:16:55;11.40;79.30
64817;DHT22;69411;45.656;11.740;2024-03-02T04:19:22;11.40;79.40
64817;DHT22;69411;45.656;11.740;2024-03-02T04:21:48;11.50;79.00
64817;DHT22;69411;45.656;11.740;2024-03-02T04:24:13;11.40;79.10
64817;DHT22;69411;45.656;11.740;2024-03-02T04:26:39;11.50;79.10
64817;DHT22;69411;45.656;11.740;2024-03-02T04:29:05;11.40;79.30
64817;DHT22;69411;45.656;11.740;2024-03-02T04:31:31;11.40;79.30
64817;DHT22;69411;45.656;11.740;2024-03-02T04:33:57;11.40;79.20
64817;DHT22;69411;45.656;11.740;2024-03-02T04:36:23;11.40;79.20
64817;DHT22;69411;45.656;11.740;2024-03-02T04:38:49;11.40;79.30
64817;DHT22;69411;45.656;11.740;2024-03-02T04:41:15;11.30;79.40
64817;DHT22;69411;45.656;11.740;2024-03-02T04:43:41;11.20;79.70
64817;DHT22;69411;45.656;11.740;2024-03-02T04:46:07;11.20;79.70
64817;DHT22;69411;45.656;11.740;2024-03-02T04:48:33;11.20;79.70
64817;DHT22;69411;45.656;11.740;2024-03-02T04:50:59;11.20;80.00
64817;DHT22;69411;45.656;11.740;2024-03-02T04:53:25;11.10;79.90
64817;DHT22;69411;45.656;11.740;2024-03-02T04:55:51;11.20;79.90
64817;DHT22;69411;45.656;11.740;2024-03-02T04:58:49;11.10;80.00
64817;DHT22;69411;45.656;11.740;2024-03-02T05:01:15;11.10;80.10
64817;DHT22;69411;45.656;11.740;2024-03-02T05:03:42;11.10;80.00
64817;DHT22;69411;45.656;11.740;2024-03-02T05:06:08;11.10;80.00
64817;DHT22;69411;45.656;11.740;2024-03-02T05:08:34;11.00;80.00
64817;DHT22;69411;45.656;11.740;2024-03-02T05:11:00;11.00;80.10
64817;DHT22;69411;45.656;11.740;2024-03-02T05:13:46;10.90;80.40
64817;DHT22;69411;45.656;11.740;2024-03-02T05:16:12;10.90;80.20
64817;DHT22;69411;45.656;11.740;2024-03-02T05:18:38;10.90;80.10
64817;DHT22;69411;45.656;11.740;2024-03-02T05:21:04;10.90;80.10
64817;DHT22;69411;45.656;11.740;2024-03-02T05:23:30;10.90;80.20
64817;DHT22;69411;45.656;11.740;2024-03-02T05:25:56;10.90;80.10
64817;DHT22;69411;45.656;11.740;2024-03-02T05:28:22;10.90;80.40
64817;DHT22;69411;45.656;11.740;2024-03-02T05:30:48;10.90;80.30
64817;DHT22;69411;45.656;11.740;2024-03-02T05:33:15;10.90;80.40
64817;DHT22;69411;45.656;11.740;2024-03-02T05:35:41;10.90;80.30
64817;DHT22;69411;45.656;11.740;2024-03-02T05:38:06;10.90;80.30
64817;DHT22;69411;45.656;11.740;2024-03-02T05:40:32;10.90;80.30
64817;DHT22;69411;45.656;11.740;2024-03-02T05:42:58;10.90;80.30
64817;DHT22;69411;45.656;11.740;2024-03-02T05:45:24;10.90;80.30
64817;DHT22;69411;45.656;11.740;2024-03-02T05:47:50;10.90;80.30
64817;DHT22;69411;45.656;11.740;2024-03-02T05:50:16;10.90;80.50
64817;DHT22;69411;45.656;11.740;2024-03-02T05:52:42;10.90;80.50
64817;DHT22;69411;45.656;11.740;2024-03-02T05:55:08;10.90;80.30
64817;DHT22;69411;45.656;11.740;2024-03-02T05:57:34;10.90;80.30
64817;DHT22;69411;45.656;11.740;2024-03-02T06:00:09;10.90;80.30
64817;DHT22;69411;45.656;11.740;2024-03-02T06:02:39;10.90;80.20
64817;DHT22;69411;45.656;11.740;2024-03-02T06:05:06;10.90;80.30
64817;DHT22;69411;45.656;11.740;2024-03-02T06:07:32;10.90;80.30
64817;DHT22;69411;45.656;11.740;2024-03-02T06:09:59;10.90;80.20
64817;DHT22;69411;45.656;11.740;2024-03-02T06:12:24;10.90;80.20
64817;DHT22;69411;45.656;11.740;2024-03-02T06:14:50;10.90;80.20
64817;DHT22;69411;45.656;11.740;2024-03-02T06:17:16;10.80;80.20
64817;DHT22;69411;45.656;11.740;2024-03-02T06:19:42;10.90;80.20
64817;DHT22;69411;45.656;11.740;2024-03-02T06:22:08;10.90;80.30
64817;DHT22;69411;45.656;11.740;2024-03-02T06:24:36;10.90;80.40
64817;DHT22;69411;45.656;11.740;2024-03-02T06:27:03;11.00;80.90
64817;DHT22;69411;45.656;11.740;2024-03-02T06:29:30;11.20;80.80
64817;DHT22;69411;45.656;11.740;2024-03-02T06:31:57;11.40;80.70
64817;DHT22;69411;45.656;11.740;2024-03-02T06:34:23;11.70;80.40
64817;DHT22;69411;45.656;11.740;2024-03-02T06:36:49;11.90;79.80
64817;DHT22;69411;45.656;11.740;2024-03-02T06:39:15;12.20;79.60
64817;DHT22;69411;45.656;11.740;2024-03-02T06:41:41;12.40;79.70
64817;DHT22;69411;45.656;11.740;2024-03-02T06:44:10;12.60;79.90
64817;DHT22;69411;45.656;11.740;2024-03-02T06:46:36;12.70;78.50
64817;DHT22;69411;45.656;11.740;2024-03-02T06:49:02;12.70;77.90
64817;DHT22;69411;45.656;11.740;2024-03-02T06:51:28;12.60;77.70
64817;DHT22;69411;45.656;11.740;2024-03-02T06:53:54;12.50;77.40
64817;DHT22;69411;45.656;11.740;2024-03-02T06:56:21;12.40;77.40
64817;DHT22;69411;45.656;11.740;2024-03-02T06:58:47;12.40;77.50
64817;DHT22;69411;45.656;11.740;2024-03-02T07:01:12;12.30;77.60
64817;DHT22;69411;45.656;11.740;2024-03-02T07:03:38;12.30;77.60
64817;DHT22;69411;45.656;11.740;2024-03-02T07:06:05;12.30;77.40
64817;DHT22;69411;45.656;11.740;2024-03-02T07:08:31;12.20;77.70
64817;DHT22;69411;45.656;11.740;2024-03-02T07:10:57;12.20;77.60
64817;DHT22;69411;45.656;11.740;2024-03-02T07:13:23;12.20;77.50
64817;DHT22;69411;45.656;11.740;2024-03-02T07:15:49;12.30;77.60
64817;DHT22;69411;45.656;11.740;2024-03-02T07:18:33;12.30;77.60
64817;DHT22;69411;45.656;11.740;2024-03-02T07:21:00;12.30;77.60
64817;DHT22;69411;45.656;11.740;2024-03-02T07:23:27;12.30;77.40
64817;DHT22;69411;45.656;11.740;2024-03-02T07:25:53;12.40;78.20
64817;DHT22;69411;45.656;11.740;2024-03-02T07:28:23;12.40;77.00
64817;DHT22;69411;45.656;11.740;2024-03-02T07:31:01;12.40;77.10
64817;DHT22;69411;45.656;11.740;2024-03-02T07:33:27;12.40;76.40
64817;DHT22;69411;45.656;11.740;2024-03-02T07:35:56;12.40;76.30
64817;DHT22;69411;45.656;11.740;2024-03-02T07:38:23;12.40;76.40
64817;DHT22;69411;45.656;11.740;2024-03-02T07:40:50;12.40;76.20
64817;DHT22;69411;45.656;11.740;2024-03-02T07:43:19;12.40;76.40
64817;DHT22;69411;45.656;11.740;2024-03-02T07:45:46;12.40;76.40
64817;DHT22;69411;45.656;11.740;2024-03-02T07:48:12;12.40;76.60
64817;DHT22;69411;45.656;11.740;2024-03-02T07:50:38;12.40;76.10
64817;DHT22;69411;45.656;11.740;2024-03-02T07:53:07;12.40;76.10
64817;DHT22;69411;45.656;11.740;2024-03-02T07:55:34;12.40;76.20
64817;DHT22;69411;45.656;11.740;2024-03-02T07:58:00;12.40;76.20
64817;DHT22;69411;45.656;11.740;2024-03-02T08:00:26;12.40;75.90
64817;DHT22;69411;45.656;11.740;2024-03-02T08:02:53;12.40;76.30
64817;DHT22;69411;45.656;11.740;2024-03-02T08:05:20;12.40;76.40
64817;DHT22;69411;45.656;11.740;2024-03-02T08:07:46;12.40;75.60
64817;DHT22;69411;45.656;11.740;2024-03-02T08:10:13;12.40;75.60
64817;DHT22;69411;45.656;11.740;2024-03-02T08:12:39;12.40;76.10
64817;DHT22;69411;45.656;11.740;2024-03-02T08:15:06;12.50;75.80
64817;DHT22;69411;45.656;11.740;2024-03-02T08:17:32;12.40;75.40
64817;DHT22;69411;45.656;11.740;2024-03-02T08:19:58;12.50;75.80
64817;DHT22;69411;45.656;11.740;2024-03-02T08:22:24;12.50;75.60
64817;DHT22;69411;45.656;11.740;2024-03-02T08:24:54;12.50;75.70
64817;DHT22;69411;45.656;11.740;2024-03-02T08:27:20;12.40;75.70
64817;DHT22;69411;45.656;11.740;2024-03-02T08:29:46;12.50;75.80
64817;DHT22;69411;45.656;11.740;2024-03-02T08:32:12;12.50;76.10
64817;DHT22;69411;45.656;11.740;2024-03-02T08:34:38;12.40;75.90
64817;DHT22;69411;45.656;11.740;2024-03-02T08:37:04;12.50;76.10
64817;DHT22;69411;45.656;11.740;2024-03-02T08:39:30;12.50;76.50
64817;DHT22;69411;45.656;11.740;2024-03-02T08:41:56;12.50;76.40
64817;DHT22;69411;45.656;11.740;2024-03-02T08:44:22;12.60;76.80
64817;DHT22;69411;45.656;11.740;2024-03-02T08:46:48;12.60;77.00
64817;DHT22;69411;45.656;11.740;2024-03-02T08:49:14;12.60;77.00
64817;DHT22;69411;45.656;11.740;2024-03-02T08:51:40;12.60;77.20
64817;DHT22;69411;45.656;11.740;2024-03-02T08:54:06;12.70;77.00
64817;DHT22;69411;45.656;11.740;2024-03-02T08:56:32;12.70;76.90
64817;DHT22;69411;45.656;11.740;2024-03-02T08:58:58;12.70;76.30
64817;DHT22;69411;45.656;11.740;2024-03-02T09:01:24;12.80;76.60
64817;DHT22;69411;45.656;11.740;2024-03-02T09:03:51;12.70;76.70
64817;DHT22;69411;45.656;11.740;2024-03-02T09:06:17;12.80;76.30
64817;DHT22;69411;45.656;11.740;2024-03-02T09:08:43;12.80;76.60
64817;DHT22;69411;45.656;11.740;2024-03-02T09:11:10;12.90;76.10
64817;DHT22;69411;45.656;11.740;2024-03-02T09:13:38;12.90;75.30
64817;DHT22;69411;45.656;11.740;2024-03-02T09:16:04;12.90;75.90
64817;DHT22;69411;45.656;11.740;2024-03-02T09:18:31;12.90;75.60
64817;DHT22;69411;45.656;11.740;2024-03-02T09:20:57;12.90;75.50
64817;DHT22;69411;45.656;11.740;2024-03-02T09:23:23;12.70;75.90
64817;DHT22;69411;45.656;11.740;2024-03-02T09:25:49;12.60;76.50
64817;DHT22;69411;45.656;11.740;2024-03-02T09:28:18;12.70;77.00
64817;DHT22;69411;45.656;11.740;2024-03-02T09:30:44;12.80;76.70
64817;DHT22;69411;45.656;11.740;2024-03-02T09:33:10;12.80;76.40
64817;DHT22;69411;45.656;11.740;2024-03-02T09:35:36;12.80;76.30
64817;DHT22;69411;45.656;11.740;2024-03-02T09:38:02;12.90;76.50
64817;DHT22;69411;45.656;11.740;2024-03-02T09:40:29;12.90;75.40
64817;DHT22;69411;45.656;11.740;2024-03-02T09:42:55;12.90;75.70
64817;DHT22;69411;45.656;11.740;2024-03-02T09:45:24;12.90;75.50
64817;DHT22;69411;45.656;11.740;2024-03-02T09:47:50;13.00;75.50
64817;DHT22;69411;45.656;11.740;2024-03-02T09:50:16;13.00;75.70
64817;DHT22;69411;45.656;11.740;2024-03-02T09:52:43;13.00;76.10
64817;DHT22;69411;45.656;11.740;2024-03-02T09:55:09;13.10;76.00
64817;DHT22;69411;45.656;11.740;2024-03-02T09:57:35;13.00;75.40
64817;DHT22;69411;45.656;11.740;2024-03-02T10:00:01;13.10;75.90
64817;DHT22;69411;45.656;11.740;2024-03-02T10:02:27;13.10;76.10
64817;DHT22;69411;45.656;11.740;2024-03-02T10:04:53;13.10;76.70
64817;DHT22;69411;45.656;11.740;2024-03-02T10:07:20;13.10;76.50
64817;DHT22;69411;45.656;11.740;2024-03-02T10:09:47;13.10;76.90
64817;DHT22;69411;45.656;11.740;2024-03-02T10:12:16;13.10;76.70
64817;DHT22;69411;45.656;11.740;2024-03-02T10:14:42;13.00;76.80
64817;DHT22;69411;45.656;11.740;2024-03-02T10:17:10;13.00;76.90
64817;DHT22;69411;45.656;11.740;2024-03-02T10:19:37;12.90;76.80
64817;DHT22;69411;45.656;11.740;2024-03-02T10:22:07;12.90;76.00
64817;DHT22;69411;45.656;11.740;2024-03-02T10:24:41;12.90;76.50
64817;DHT22;69411;45.656;11.740;2024-03-02T10:27:08;13.00;76.30
64817;DHT22;69411;45.656;11.740;2024-03-02T10:29:37;13.00;76.60
64817;DHT22;69411;45.656;11.740;2024-03-02T10:32:04;13.00;75.40
64817;DHT22;69411;45.656;11.740;2024-03-02T10:34:32;12.90;76.30
64817;DHT22;69411;45.656;11.740;2024-03-02T10:36:59;13.00;76.00
64817;DHT22;69411;45.656;11.740;2024-03-02T10:39:26;13.00;75.80
64817;DHT22;69411;45.656;11.740;2024-03-02T10:41:52;12.90;75.90
64817;DHT22;69411;45.656;11.740;2024-03-02T10:44:19;13.00;76.20
64817;DHT22;69411;45.656;11.740;2024-03-02T10:46:47;12.90;75.70
64817;DHT22;69411;45.656;11.740;2024-03-02T10:49:15;13.00;76.40
64817;DHT22;69411;45.656;11.740;2024-03-02T10:51:41;12.90;75.90
64817;DHT22;69411;45.656;11.740;2024-03-02T10:54:08;12.90;75.80
64817;DHT22;69411;45.656;11.740;2024-03-02T10:56:39;12.90;75.60
64817;DHT22;69411;45.656;11.740;2024-03-02T11:02:00;12.90;75.70
64817;DHT22;69411;45.656;11.740;2024-03-02T11:04:28;12.90;74.60
64817;DHT22;69411;45.656;11.740;2024-03-02T11:09:27;12.90;75.40
64817;DHT22;69411;45.656;11.740;2024-03-02T11:12:09;12.90;75.20
64817;DHT22;69411;45.656;11.740;2024-03-02T11:14:41;12.90;75.50
64817;DHT22;69411;45.656;11.740;2024-03-02T11:19:41;13.00;76.00
64817;DHT22;69411;45.656;11.740;2024-03-02T11:22:08;13.00;76.10
64817;DHT22;69411;45.656;11.740;2024-03-02T11:24:34;12.90;75.80
64817;DHT22;69411;45.656;11.740;2024-03-02T11:27:02;12.90;75.00
64817;DHT22;69411;45.656;11.740;2024-03-02T11:32:05;12.80;77.10
64817;DHT22;69411;45.656;11.740;2024-03-02T11:34:35;12.80;78.30
64817;DHT22;69411;45.656;11.740;2024-03-02T11:37:02;12.80;77.90
64817;DHT22;69411;45.656;11.740;2024-03-02T11:39:29;12.60;78.00
64817;DHT22;69411;45.656;11.740;2024-03-02T11:41:58;12.60;78.70
64817;DHT22;69411;45.656;11.740;2024-03-02T11:44:27;12.50;79.20
64817;DHT22;69411;45.656;11.740;2024-03-02T11:47:00;12.50;79.30
64817;DHT22;69411;45.656;11.740;2024-03-02T11:49:43;12.50;79.40
64817;DHT22;69411;45.656;11.740;2024-03-02T11:52:14;12.40;79.00
64817;DHT22;69411;45.656;11.740;2024-03-02T11:54:43;12.30;78.40
64817;DHT22;69411;45.656;11.740;2024-03-02T11:57:20;12.40;79.20
64817;DHT22;69411;45.656;11.740;2024-03-02T11:59:48;12.40;78.90
64817;DHT22;69411;45.656;11.740;2024-03-02T12:02:21;12.40;79.80
64817;DHT22;69411;45.656;11.740;2024-03-02T12:04:48;12.40;80.00
64817;DHT22;69411;45.656;11.740;2024-03-02T12:07:24;12.30;80.10
64817;DHT22;69411;45.656;11.740;2024-03-02T12:10:00;12.30;80.00
64817;DHT22;69411;45.656;11.740;2024-03-02T12:12:27;12.30;80.60
64817;DHT22;69411;45.656;11.740;2024-03-02T12:14:53;12.40;80.70
64817;DHT22;69411;45.656;11.740;2024-03-02T12:17:22;12.30;79.50
64817;DHT22;69411;45.656;11.740;2024-03-02T12:19:48;12.30;80.00
64817;DHT22;69411;45.656;11.740;2024-03-02T12:22:14;12.30;78.80
64817;DHT22;69411;45.656;11.740;2024-03-02T12:24:41;12.20;80.20
64817;DHT22;69411;45.656;11.740;2024-03-02T12:27:12;12.20;79.70
64817;DHT22;69411;45.656;11.740;2024-03-02T12:29:39;12.20;79.10
64817;DHT22;69411;45.656;11.740;2024-03-02T12:32:05;12.10;79.70
64817;DHT22;69411;45.656;11.740;2024-03-02T12:34:31;12.10;79.90
64817;DHT22;69411;45.656;11.740;2024-03-02T12:36:58;12.10;79.30
64817;DHT22;69411;45.656;11.740;2024-03-02T12:39:24;12.20;79.70
64817;DHT22;69411;45.656;11.740;2024-03-02T12:41:53;12.30;80.50
64817;DHT22;69411;45.656;11.740;2024-03-02T12:44:20;12.30;80.60
64817;DHT22;69411;45.656;11.740;2024-03-02T12:46:46;12.40;80.90
64817;DHT22;69411;45.656;11.740;2024-03-02T12:49:14;12.40;80.30
64817;DHT22;69411;45.656;11.740;2024-03-02T12:51:43;12.40;80.10
64817;DHT22;69411;45.656;11.740;2024-03-02T12:54:12;12.40;79.70
64817;DHT22;69411;45.656;11.740;2024-03-02T12:56:41;12.30;80.30
64817;DHT22;69411;45.656;11.740;2024-03-02T12:59:24;12.40;80.50
64817;DHT22;69411;45.656;11.740;2024-03-02T13:01:53;12.40;80.00
64817;DHT22;69411;45.656;11.740;2024-03-02T13:04:27;12.40;79.30
64817;DHT22;69411;45.656;11.740;2024-03-02T13:06:55;12.40;79.40
64817;DHT22;69411;45.656;11.740;2024-03-02T13:09:23;12.40;79.80
64817;DHT22;69411;45.656;11.740;2024-03-02T13:11:50;12.30;79.50
64817;DHT22;69411;45.656;11.740;2024-03-02T13:14:16;12.20;79.00
64817;DHT22;69411;45.656;11.740;2024-03-02T13:16:42;12.20;79.30
64817;DHT22;69411;45.656;11.740;2024-03-02T13:19:09;12.30;79.50
64817;DHT22;69411;45.656;11.740;2024-03-02T13:21:35;12.30;80.00
64817;DHT22;69411;45.656;11.740;2024-03-02T13:24:01;12.20;80.10
64817;DHT22;69411;45.656;11.740;2024-03-02T13:26:28;12.20;80.00
64817;DHT22;69411;45.656;11.740;2024-03-02T13:28:54;12.10;80.00
64817;DHT22;69411;45.656;11.740;2024-03-02T13:31:21;12.10;80.20
64817;DHT22;69411;45.656;11.740;2024-03-02T13:33:47;12.20;80.40
64817;DHT22;69411;45.656;11.740;2024-03-02T13:36:12;12.30;80.20
64817;DHT22;69411;45.656;11.740;2024-03-02T13:38:38;12.40;80.40
64817;DHT22;69411;45.656;11.740;2024-03-02T13:41:04;12.20;78.90
64817;DHT22;69411;45.656;11.740;2024-03-02T13:43:30;12.20;79.50
64817;DHT22;69411;45.656;11.740;2024-03-02T13:46:03;12.20;79.40
64817;DHT22;69411;45.656;11.740;2024-03-02T13:48:29;12.20;79.90
64817;DHT22;69411;45.656;11.740;2024-03-02T13:50:56;12.10;79.20
64817;DHT22;69411;45.656;11.740;2024-03-02T13:53:48;12.10;79.40
64817;DHT22;69411;45.656;11.740;2024-03-02T13:56:17;12.10;79.90
64817;DHT22;69411;45.656;11.740;2024-03-02T13:58:43;12.00;80.30
64817;DHT22;69411;45.656;11.740;2024-03-02T14:01:09;12.00;79.60
64817;DHT22;69411;45.656;11.740;2024-03-02T14:03:35;11.90;80.10
64817;DHT22;69411;45.656;11.740;2024-03-02T14:06:01;11.90;80.10
64817;DHT22;69411;45.656;11.740;2024-03-02T14:08:26;11.90;79.70
64817;DHT22;69411;45.656;11.740;2024-03-02T14:10:52;11.90;80.30
64817;DHT22;69411;45.656;11.740;2024-03-02T14:13:19;11.90;80.40
64817;DHT22;69411;45.656;11.740;2024-03-02T14:15:45;12.00;81.10
64817;DHT22;69411;45.656;11.740;2024-03-02T14:18:11;12.10;80.70
64817;DHT22;69411;45.656;11.740;2024-03-02T14:20:37;12.10;80.60
64817;DHT22;69411;45.656;11.740;2024-03-02T14:23:04;12.20;80.30
64817;DHT22;69411;45.656;11.740;2024-03-02T14:25:32;12.20;80.10
64817;DHT22;69411;45.656;11.740;2024-03-02T14:27:59;12.20;80.30
64817;DHT22;69411;45.656;11.740;2024-03-02T14:30:25;12.30;80.10
64817;DHT22;69411;45.656;11.740;2024-03-02T14:32:51;12.30;80.20
64817;DHT22;69411;45.656;11.740;2024-03-02T14:35:17;12.40;80.20
64817;DHT22;69411;45.656;11.740;2024-03-02T14:37:43;12.40;80.40
64817;DHT22;69411;45.656;11.740;2024-03-02T14:40:09;12.40;80.10
64817;DHT22;69411;45.656;11.740;2024-03-02T14:45:11;12.40;80.00
64817;DHT22;69411;45.656;11.740;2024-03-02T14:47:37;12.40;79.90
64817;DHT22;69411;45.656;11.740;2024-03-02T14:50:03;12.40;80.10
64817;DHT22;69411;45.656;11.740;2024-03-02T14:52:32;12.40;79.70
64817;DHT22;69411;45.656;11.740;2024-03-02T14:54:58;12.40;79.80
64817;DHT22;69411;45.656;11.740;2024-03-02T14:57:24;12.40;79.90
64817;DHT22;69411;45.656;11.740;2024-03-02T14:59:50;12.40;79.90
64817;DHT22;69411;45.656;11.740;2024-03-02T15:02:16;12.40;79.70
64817;DHT22;69411;45.656;11.740;2024-03-02T15:04:42;12.40;79.30
64817;DHT22;69411;45.656;11.740;2024-03-02T15:07:11;12.40;79.60
64817;DHT22;69411;45.656;11.740;2024-03-02T15:09:37;12.40;79.60
64817;DHT22;69411;45.656;11.740;2024-03-02T15:12:03;12.40;79.60
64817;DHT22;69411;45.656;11.740;2024-03-02T15:14:29;12.40;79.70
64817;DHT22;69411;45.656;11.740;2024-03-02T15:16:56;12.40;79.70
64817;DHT22;69411;45.656;11.740;2024-03-02T15:19:21;12.40;79.70
64817;DHT22;69411;45.656;11.740;2024-03-02T15:21:47;12.40;79.70
64817;DHT22;69411;45.656;11.740;2024-03-02T15:24:13;12.40;79.80
64817;DHT22;69411;45.656;11.740;2024-03-02T15:29:14;12.50;79.80
64817;DHT22;69411;45.656;11.740;2024-03-02T15:31:40;12.50;79.90
64817;DHT22;69411;45.656;11.740;2024-03-02T15:34:06;12.50;79.80
64817;DHT22;69411;45.656;11.740;2024-03-02T15:36:33;12.50;79.90
64817;DHT22;69411;45.656;11.740;2024-03-02T15:39:00;12.50;79.80